Rancho Viejo, Texas
Current Conditions -  °F | °C
As of 1:53 PM on Sunday 23 Nov 2014 (Local Time) from KBRO Reporting Station
Clear Clear  
Wind Chill: 85°   Ceiling: Unl
Heat Index: 85°   Visibility: 10mi
Dew Point: 54°   Wind: 8mph
Humidity: 34%   Direction: 200°SSW
Pressure: 29.65"   Gusts: NA
Location:  26.0347°N, 97.5478°W
Report Text: KBRO 231953Z 20007KT 10SM CLR 29/12 A2965 RMK AO2 SLP040 T02940122
Loading
Personal Weather Stations






























Interactive Weather Map New forecast layout! Learn more

10-Day Weather Forecast

Advertisements
Track Severe Weather on mobile